Time;durP1;ratioP1;P1;durP2;ratioP2;P2;SDS_P1;SDS_P2;PMS_P1;PMS_P2;Temp;Humidity;BMP_temperature;BMP_pressure;BME280_temperature;BME280_humidity;BME280_pressure;Samples;Min_cycle;Max_cycle;Signal;HPM_P1;HPM_P2
2021/03/12 00:01:06;;;;;;;0.90;0.90;;;4.80;99.90;;;;;;4978539;28;20664;-60
2021/03/12 00:03:35;;;;;;;0.90;0.90;;;4.80;99.90;;;;;;4983310;28;20220;-61
2021/03/12 00:06:08;;;;;;;0.90;0.90;;;4.80;99.90;;;;;;4991510;28;20433;-61
2021/03/12 00:08:39;;;;;;;0.97;0.97;;;4.80;99.90;;;;;;4974408;28;20472;-60
2021/03/12 00:11:06;;;;;;;4.50;1.10;;;4.90;99.90;;;;;;4990556;28;20456;-62
2021/03/12 00:13:32;;;;;;;1.00;0.90;;;4.90;99.90;;;;;;4987185;28;20463;-60
2021/03/12 00:15:58;;;;;;;1.33;0.80;;;4.90;99.90;;;;;;4993304;28;20436;-60
2021/03/12 00:18:28;;;;;;;1.00;1.00;;;4.90;99.90;;;;;;4972014;28;20510;-61
2021/03/12 00:20:54;;;;;;;0.80;0.80;;;4.90;99.90;;;;;;4991661;28;20181;-60
2021/03/12 00:23:20;;;;;;;1.50;0.80;;;4.90;99.90;;;;;;4980894;28;20460;-61
2021/03/12 00:25:47;;;;;;;1.00;0.90;;;4.90;99.90;;;;;;4991608;28;20516;-61
2021/03/12 00:28:14;;;;;;;1.10;0.83;;;4.90;99.90;;;;;;4993283;28;20208;-61
2021/03/12 00:30:41;;;;;;;1.77;0.90;;;4.90;99.90;;;;;;4977812;28;20947;-61
2021/03/12 00:33:07;;;;;;;1.27;1.10;;;4.90;99.90;;;;;;4991952;28;20440;-62
2021/03/12 00:35:35;;;;;;;0.90;0.90;;;4.90;99.90;;;;;;5004620;22;20496;-60
2021/03/12 00:38:01;;;;;;;0.90;0.90;;;4.80;99.90;;;;;;4992281;28;20472;-59
2021/03/12 00:40:37;;;;;;;1.20;0.87;;;4.90;99.90;;;;;;4992948;28;20451;-60
2021/03/12 00:43:03;;;;;;;0.70;0.70;;;4.80;99.90;;;;;;4988558;28;20854;-59
2021/03/12 00:45:33;;;;;;;0.87;0.87;;;4.80;99.90;;;;;;4990318;28;20444;-59
2021/03/12 00:47:59;;;;;;;1.00;0.90;;;4.80;99.90;;;;;;4989929;28;20429;-60
2021/03/12 00:50:29;;;;;;;0.80;0.80;;;4.80;99.90;;;;;;4977438;28;20436;-60
2021/03/12 00:52:55;;;;;;;0.80;0.80;;;4.90;99.90;;;;;;4977183;28;20460;-62
2021/03/12 00:55:20;;;;;;;0.90;0.90;;;4.90;99.90;;;;;;4989931;28;20525;-62
2021/03/12 00:57:46;;;;;;;0.80;0.80;;;4.90;99.90;;;;;;5002794;28;20196;-63
2021/03/12 01:00:13;;;;;;;0.80;0.80;;;4.90;99.90;;;;;;4994164;28;20826;-64
2021/03/12 01:02:38;;;;;;;0.80;0.80;;;4.90;99.90;;;;;;4995767;28;20200;-61
2021/03/12 01:05:06;;;;;;;0.90;0.90;;;4.90;99.90;;;;;;4981939;28;20463;-65
2021/03/12 01:07:32;;;;;;;2.67;0.80;;;4.80;99.90;;;;;;5002161;28;20185;-59
2021/03/12 01:09:57;;;;;;;0.80;0.80;;;4.90;99.90;;;;;;5007287;28;20440;-59
2021/03/12 01:12:24;;;;;;;0.97;0.97;;;4.90;99.90;;;;;;5005875;28;20185;-58
2021/03/12 01:14:50;;;;;;;1.07;0.97;;;4.90;99.90;;;;;;4974071;28;20213;-57
2021/03/12 01:17:16;;;;;;;0.87;0.70;;;4.90;99.90;;;;;;4990796;28;20440;-58
2021/03/12 01:19:41;;;;;;;3.37;0.90;;;4.90;99.90;;;;;;4984616;28;20443;-58
2021/03/12 01:22:07;;;;;;;2.40;0.90;;;4.90;99.90;;;;;;4972136;28;20213;-59
2021/03/12 01:24:33;;;;;;;1.17;1.07;;;4.90;99.90;;;;;;4989070;28;20280;-59
2021/03/12 01:27:00;;;;;;;0.70;0.70;;;4.90;99.90;;;;;;4997297;28;20180;-57
2021/03/12 01:29:26;;;;;;;1.10;1.10;;;4.90;99.90;;;;;;4986904;28;20439;-57
2021/03/12 01:31:52;;;;;;;2.00;0.90;;;4.90;99.90;;;;;;4991687;28;20442;-58
2021/03/12 01:34:18;;;;;;;1.20;1.00;;;4.90;99.90;;;;;;4972106;28;20490;-59
2021/03/12 01:36:44;;;;;;;1.10;1.00;;;4.90;99.90;;;;;;5003291;28;20432;-60
2021/03/12 01:39:10;;;;;;;1.90;1.30;;;4.80;99.90;;;;;;5000183;28;20432;-60
2021/03/12 01:41:36;;;;;;;1.67;1.00;;;4.80;99.90;;;;;;5003711;28;20438;-58
2021/03/12 01:44:03;;;;;;;1.10;1.00;;;4.80;99.90;;;;;;4995279;28;20173;-58
2021/03/12 01:46:30;;;;;;;3.53;1.20;;;4.80;99.90;;;;;;4996131;28;20684;-61
2021/03/12 01:48:55;;;;;;;0.83;0.83;;;4.80;99.90;;;;;;4985838;28;20456;-59
2021/03/12 01:51:21;;;;;;;2.40;1.20;;;4.70;99.90;;;;;;5001826;28;20188;-62
2021/03/12 01:53:47;;;;;;;0.90;0.90;;;4.70;99.90;;;;;;4999101;28;20427;-61
2021/03/12 01:56:13;;;;;;;2.53;1.30;;;4.70;99.90;;;;;;4992340;28;20805;-60
2021/03/12 01:58:39;;;;;;;1.20;1.10;;;4.70;99.90;;;;;;4989574;28;20235;-58
2021/03/12 02:01:05;;;;;;;1.17;0.90;;;4.60;99.90;;;;;;4994559;28;20252;-58
2021/03/12 02:03:32;;;;;;;2.07;1.00;;;4.60;99.90;;;;;;4986317;28;20464;-59
2021/03/12 02:05:58;;;;;;;1.77;1.00;;;4.60;99.90;;;;;;4983171;28;20189;-59
2021/03/12 02:08:24;;;;;;;1.47;1.00;;;4.60;99.90;;;;;;4993329;28;20795;-60
2021/03/12 02:10:51;;;;;;;1.87;1.07;;;4.50;99.90;;;;;;5007222;28;20494;-62
2021/03/12 02:13:38;;;;;;;2.00;0.90;;;4.50;99.90;;;;;;4998816;28;20547;-61
2021/03/12 02:16:20;;;;;;;0.93;0.93;;;4.50;99.90;;;;;;5005939;28;20539;-59
2021/03/12 02:19:22;;;;;;;0.80;0.80;;;4.40;99.90;;;;;;5004712;28;20486;-59
2021/03/12 02:21:53;;;;;;;0.90;0.90;;;4.40;99.90;;;;;;4990611;28;20430;-58
2021/03/12 02:24:40;;;;;;;0.90;0.90;;;4.40;99.90;;;;;;4982333;28;20906;-57
2021/03/12 02:27:09;;;;;;;0.90;0.90;;;4.30;99.90;;;;;;4977956;28;20805;-58
2021/03/12 02:29:40;;;;;;;1.97;0.93;;;4.30;99.90;;;;;;4991718;28;20954;-60
2021/03/12 02:32:07;;;;;;;1.17;1.07;;;4.20;99.90;;;;;;4987855;28;20467;-58
2021/03/12 02:34:37;;;;;;;1.07;1.00;;;4.20;99.90;;;;;;4989228;28;20472;-59
2021/03/12 02:37:06;;;;;;;2.10;1.00;;;4.10;99.90;;;;;;4992665;28;20812;-58
2021/03/12 02:39:35;;;;;;;1.00;0.90;;;4.10;99.90;;;;;;4988216;28;20498;-59
2021/03/12 02:42:02;;;;;;;1.00;1.00;;;4.00;99.90;;;;;;4988326;28;20462;-59
2021/03/12 02:44:30;;;;;;;2.07;0.87;;;4.00;99.90;;;;;;4986821;28;20475;-59
2021/03/12 02:47:09;;;;;;;1.20;0.90;;;4.00;99.90;;;;;;4989617;28;20963;-61
2021/03/12 02:49:36;;;;;;;2.33;1.00;;;3.90;99.90;;;;;;4987944;28;20432;-60
2021/03/12 02:52:03;;;;;;;1.10;1.10;;;4.00;99.90;;;;;;4983483;28;20440;-58
2021/03/12 02:54:29;;;;;;;2.10;0.90;;;3.90;99.90;;;;;;4988878;28;20839;-60
2021/03/12 02:56:56;;;;;;;3.17;1.50;;;3.90;99.90;;;;;;4988893;28;20431;-59
2021/03/12 02:59:23;;;;;;;2.07;1.47;;;3.90;99.90;;;;;;4989890;28;20439;-60
2021/03/12 03:01:52;;;;;;;3.80;1.30;;;3.80;99.90;;;;;;4969179;28;20468;-60
2021/03/12 03:04:18;;;;;;;1.47;1.10;;;3.90;99.90;;;;;;4985243;28;20457;-59
2021/03/12 03:06:46;;;;;;;2.20;1.37;;;3.80;99.90;;;;;;4991489;28;20420;-60
2021/03/12 03:09:14;;;;;;;2.57;1.53;;;3.90;99.90;;;;;;4973530;28;20513;-60
2021/03/12 03:11:40;;;;;;;3.03;1.40;;;3.90;99.90;;;;;;4987997;28;20437;-60
2021/03/12 03:14:08;;;;;;;2.50;1.40;;;3.90;99.90;;;;;;5000392;28;20454;-60
2021/03/12 03:16:36;;;;;;;1.47;1.37;;;3.90;99.90;;;;;;4993044;28;20474;-60
2021/03/12 03:19:03;;;;;;;2.50;1.27;;;3.90;99.90;;;;;;4986718;28;20466;-60
2021/03/12 03:21:30;;;;;;;1.20;1.10;;;3.90;99.90;;;;;;4990008;28;20440;-60
2021/03/12 03:23:56;;;;;;;1.90;1.17;;;3.90;99.90;;;;;;4988116;28;20507;-60
2021/03/12 03:26:22;;;;;;;1.10;1.10;;;3.90;99.90;;;;;;4979641;28;20483;-59
2021/03/12 03:28:50;;;;;;;0.80;0.80;;;3.90;99.90;;;;;;4984565;28;20190;-59
2021/03/12 03:31:16;;;;;;;1.50;1.40;;;3.90;99.90;;;;;;4980004;28;20463;-59
2021/03/12 03:33:42;;;;;;;1.63;1.03;;;3.90;99.90;;;;;;4988718;28;20442;-60
2021/03/12 03:36:09;;;;;;;4.10;1.20;;;3.90;99.90;;;;;;4990614;28;20456;-59
2021/03/12 03:38:34;;;;;;;2.97;1.33;;;3.90;99.90;;;;;;4976206;28;20208;-61
2021/03/12 03:41:10;;;;;;;3.97;1.90;;;3.90;99.90;;;;;;5002614;28;20439;-60
2021/03/12 03:43:41;;;;;;;2.80;1.40;;;4.00;99.90;;;;;;4998225;28;20209;-65
2021/03/12 03:46:09;;;;;;;1.90;1.50;;;4.00;99.90;;;;;;4996882;28;20457;-61
2021/03/12 03:48:37;;;;;;;2.00;1.57;;;4.00;99.90;;;;;;4986091;28;20435;-61
2021/03/12 03:51:06;;;;;;;3.00;1.40;;;4.00;99.90;;;;;;4978534;28;20433;-60
2021/03/12 03:53:34;;;;;;;4.30;1.30;;;4.00;99.90;;;;;;4997902;28;20436;-62
2021/03/12 03:56:02;;;;;;;3.23;1.40;;;4.00;99.90;;;;;;4990898;28;20459;-60
2021/03/12 03:58:29;;;;;;;3.37;1.47;;;4.00;99.90;;;;;;4990265;28;20435;-61
2021/03/12 04:00:55;;;;;;;3.10;1.50;;;4.00;99.90;;;;;;4978495;28;20428;-60
2021/03/12 04:03:23;;;;;;;1.47;1.20;;;4.00;99.90;;;;;;4969262;28;20974;-61
2021/03/12 04:05:50;;;;;;;2.00;1.30;;;4.00;99.90;;;;;;4989487;28;20448;-60
2021/03/12 04:08:16;;;;;;;1.20;1.10;;;4.00;99.90;;;;;;4991502;28;20464;-62
2021/03/12 04:10:43;;;;;;;3.30;1.23;;;4.00;99.90;;;;;;4962187;28;20437;-60
2021/03/12 04:13:09;;;;;;;1.30;1.20;;;4.00;99.90;;;;;;4997262;28;20490;-59
2021/03/12 04:15:36;;;;;;;7.30;1.30;;;4.00;99.90;;;;;;4985312;28;20462;-60
2021/03/12 04:18:02;;;;;;;1.40;1.00;;;4.00;99.90;;;;;;4996068;28;20506;-60
2021/03/12 04:20:29;;;;;;;2.00;1.77;;;3.90;99.90;;;;;;4991280;28;20463;-59
2021/03/12 04:22:56;;;;;;;1.33;1.27;;;3.90;99.90;;;;;;4992630;28;20452;-60
2021/03/12 04:25:23;;;;;;;1.30;1.17;;;3.80;99.90;;;;;;4990079;28;20463;-60
2021/03/12 04:27:50;;;;;;;1.07;1.07;;;3.80;99.90;;;;;;4994551;28;20441;-60
2021/03/12 04:30:16;;;;;;;4.60;1.30;;;3.80;99.90;;;;;;4973412;28;20447;-60
2021/03/12 04:32:43;;;;;;;1.70;1.30;;;3.80;99.90;;;;;;4991223;28;20640;-61
2021/03/12 04:35:09;;;;;;;1.53;1.43;;;3.80;99.90;;;;;;4975882;28;20499;-60
2021/03/12 04:37:36;;;;;;;2.43;1.10;;;3.80;99.90;;;;;;4997093;28;20594;-61
2021/03/12 04:40:04;;;;;;;4.73;1.60;;;3.80;99.90;;;;;;4977660;28;20486;-58
2021/03/12 04:42:31;;;;;;;1.60;1.50;;;3.80;99.90;;;;;;4994993;28;20473;-58
2021/03/12 04:44:57;;;;;;;1.63;1.30;;;3.80;99.90;;;;;;4999471;28;20518;-62
2021/03/12 04:47:23;;;;;;;7.10;1.43;;;3.80;99.90;;;;;;4988977;28;20448;-61
2021/03/12 04:49:49;;;;;;;2.50;1.43;;;3.70;99.90;;;;;;5000240;28;20439;-61
2021/03/12 04:52:17;;;;;;;3.13;1.50;;;3.70;99.90;;;;;;4999812;28;20964;-60
2021/03/12 04:54:46;;;;;;;1.60;1.10;;;3.80;99.90;;;;;;4979326;28;20888;-63
2021/03/12 04:57:14;;;;;;;2.60;1.30;;;3.70;99.90;;;;;;4989102;28;20434;-59
2021/03/12 04:59:40;;;;;;;2.20;1.53;;;3.80;99.90;;;;;;4994016;28;20482;-59
2021/03/12 05:02:06;;;;;;;2.70;1.30;;;3.80;99.90;;;;;;4988176;28;20456;-60
2021/03/12 05:04:33;;;;;;;2.40;1.47;;;3.80;99.90;;;;;;4970451;28;20523;-59
2021/03/12 05:07:00;;;;;;;8.97;1.50;;;3.80;99.90;;;;;;4989497;28;20475;-61
2021/03/12 05:09:26;;;;;;;4.83;1.73;;;3.70;99.90;;;;;;4996217;28;20442;-59
2021/03/12 05:11:52;;;;;;;2.53;1.53;;;3.80;99.90;;;;;;4973927;28;20807;-59
2021/03/12 05:14:19;;;;;;;1.67;1.40;;;3.80;99.90;;;;;;4976940;28;20216;-61
2021/03/12 05:16:45;;;;;;;2.63;1.50;;;3.80;99.90;;;;;;4988305;28;20203;-59
2021/03/12 05:19:11;;;;;;;5.23;1.63;;;3.70;99.90;;;;;;4972717;28;20452;-60
2021/03/12 05:21:37;;;;;;;1.13;1.13;;;3.70;99.90;;;;;;4984073;28;20248;-59
2021/03/12 05:24:03;;;;;;;1.80;1.20;;;3.70;99.90;;;;;;4990628;28;20510;-59
2021/03/12 05:26:29;;;;;;;2.83;1.30;;;3.60;99.90;;;;;;4967821;28;20200;-58
2021/03/12 05:28:54;;;;;;;7.10;1.10;;;3.50;99.90;;;;;;4976638;28;20449;-59
2021/03/12 05:31:23;;;;;;;5.90;1.80;;;3.50;99.90;;;;;;4977545;28;20513;-58
2021/03/12 05:33:52;;;;;;;1.40;1.30;;;3.50;99.90;;;;;;4961883;28;20709;-60
2021/03/12 05:36:18;;;;;;;2.50;1.40;;;3.50;99.90;;;;;;4982950;28;20442;-60
2021/03/12 05:38:43;;;;;;;3.97;2.20;;;3.40;99.90;;;;;;4962108;28;20499;-59
2021/03/12 05:41:09;;;;;;;10.20;1.80;;;3.40;99.90;;;;;;4988081;28;20443;-61
2021/03/12 05:43:35;;;;;;;5.40;1.50;;;3.40;99.90;;;;;;4989972;28;20214;-65
2021/03/12 05:46:01;;;;;;;5.67;1.50;;;3.40;99.90;;;;;;4985687;28;20471;-58
2021/03/12 05:48:27;;;;;;;2.27;1.50;;;3.50;99.90;;;;;;4978855;28;20210;-60
2021/03/12 05:50:56;;;;;;;2.67;1.80;;;3.50;99.90;;;;;;4965666;28;20434;-59
2021/03/12 05:53:22;;;;;;;2.60;1.80;;;3.40;99.90;;;;;;4977638;28;20985;-57
2021/03/12 05:55:48;;;;;;;5.70;2.20;;;3.40;99.90;;;;;;4974365;28;20464;-62
2021/03/12 05:58:14;;;;;;;6.40;1.93;;;3.30;99.90;;;;;;4975002;28;20504;-60
2021/03/12 06:00:39;;;;;;;3.63;1.60;;;3.30;99.90;;;;;;4987835;28;20290;-59
2021/03/12 06:03:05;;;;;;;5.80;1.97;;;3.30;99.90;;;;;;4989526;28;20287;-58
2021/03/12 06:05:31;;;;;;;4.20;1.90;;;3.30;99.90;;;;;;4977267;28;20209;-60
2021/03/12 06:07:57;;;;;;;2.37;1.90;;;3.30;99.90;;;;;;4991374;28;20192;-59
2021/03/12 06:10:22;;;;;;;3.57;1.73;;;3.20;99.90;;;;;;4986065;28;20450;-60
2021/03/12 06:12:51;;;;;;;1.80;1.50;;;3.20;99.90;;;;;;4953595;28;20198;-60
2021/03/12 06:15:16;;;;;;;1.83;1.43;;;3.20;99.90;;;;;;4986650;28;20201;-60
2021/03/12 06:17:47;;;;;;;1.70;1.60;;;3.20;99.90;;;;;;4991689;28;20450;-58
2021/03/12 06:20:14;;;;;;;5.17;1.40;;;3.10;99.90;;;;;;4990784;28;20211;-57
2021/03/12 06:22:51;;;;;;;3.13;1.83;;;3.10;99.90;;;;;;4983103;28;20468;-59
2021/03/12 06:25:19;;;;;;;4.47;1.30;;;3.10;99.90;;;;;;4991710;28;20472;-60
2021/03/12 06:27:46;;;;;;;2.73;1.30;;;3.10;99.90;;;;;;4980085;28;20532;-58
2021/03/12 06:30:14;;;;;;;5.40;1.60;;;3.10;99.90;;;;;;4986242;28;20983;-60
2021/03/12 06:32:45;;;;;;;6.97;2.00;;;3.10;99.90;;;;;;4985600;28;20954;-57
2021/03/12 06:35:14;;;;;;;3.23;1.77;;;3.20;99.90;;;;;;4967680;28;20475;-60
2021/03/12 06:37:40;;;;;;;5.67;1.33;;;3.20;99.90;;;;;;4981449;28;21225;-59
2021/03/12 06:40:12;;;;;;;3.30;1.60;;;3.30;99.90;;;;;;4982175;28;20440;-57
2021/03/12 06:42:56;;;;;;;8.40;1.93;;;3.30;99.90;;;;;;4994394;28;20980;-58
2021/03/12 06:45:21;;;;;;;2.00;1.70;;;3.40;99.90;;;;;;4971367;28;21077;-60
2021/03/12 06:47:47;;;;;;;8.10;1.90;;;3.60;99.90;;;;;;4982008;28;20439;-62
2021/03/12 06:50:13;;;;;;;2.87;2.03;;;3.70;99.90;;;;;;4983807;28;20188;-60
2021/03/12 06:52:38;;;;;;;2.63;1.23;;;3.70;99.90;;;;;;4979848;28;20195;-60
2021/03/12 06:55:06;;;;;;;5.23;1.20;;;3.80;99.90;;;;;;4948296;28;20631;-61
2021/03/12 06:57:32;;;;;;;4.30;1.60;;;3.90;99.90;;;;;;4983549;28;20173;-60
2021/03/12 07:00:04;;;;;;;6.43;2.17;;;4.00;99.90;;;;;;4987426;28;20444;-61
2021/03/12 07:02:35;;;;;;;4.93;1.80;;;4.10;99.50;;;;;;4979349;28;20474;-61
2021/03/12 07:05:03;;;;;;;5.30;1.80;;;4.20;99.90;;;;;;4986071;28;20451;-63
2021/03/12 07:07:36;;;;;;;4.43;1.90;;;4.20;99.90;;;;;;4986411;28;20427;-60
2021/03/12 07:10:05;;;;;;;7.10;1.80;;;4.30;99.90;;;;;;4984646;28;20941;-62
2021/03/12 07:12:51;;;;;;;2.50;1.80;;;4.40;99.50;;;;;;4987907;28;20756;-60
2021/03/12 07:15:18;;;;;;;7.50;2.00;;;4.50;99.30;;;;;;4970365;28;20559;-67
2021/03/12 07:17:45;;;;;;;2.90;1.60;;;4.60;99.70;;;;;;4976160;28;21093;-62
2021/03/12 07:20:14;;;;;;;5.87;1.70;;;4.60;99.50;;;;;;4985276;28;20466;-60
2021/03/12 07:22:44;;;;;;;6.77;2.00;;;4.70;98.70;;;;;;4994065;28;21027;-63
2021/03/12 07:25:10;;;;;;;2.10;1.73;;;4.70;98.10;;;;;;4987868;28;20471;-60
2021/03/12 07:27:40;;;;;;;4.20;1.50;;;4.80;98.50;;;;;;4981953;28;20924;-61
2021/03/12 07:30:09;;;;;;;3.07;1.70;;;4.80;98.20;;;;;;4979737;28;21128;-65
2021/03/12 07:32:37;;;;;;;3.47;1.73;;;4.90;97.80;;;;;;4963245;28;21172;-60
2021/03/12 07:35:04;;;;;;;2.10;1.63;;;5.00;97.50;;;;;;4984112;28;20468;-61
2021/03/12 07:37:33;;;;;;;2.30;1.60;;;5.00;97.80;;;;;;4973810;28;20444;-61
2021/03/12 07:40:05;;;;;;;3.53;1.63;;;5.00;97.30;;;;;;4983275;28;20486;-60
2021/03/12 07:42:33;;;;;;;4.33;1.80;;;5.00;96.70;;;;;;4988441;28;20456;-61
2021/03/12 07:44:59;;;;;;;13.63;2.27;;;5.00;96.60;;;;;;4991529;28;20609;-64
2021/03/12 07:47:27;;;;;;;5.57;1.83;;;5.00;96.20;;;;;;4973834;28;20554;-58
2021/03/12 07:49:54;;;;;;;1.93;1.33;;;5.10;96.60;;;;;;4984689;28;20471;-60
2021/03/12 07:52:51;;;;;;;4.67;1.83;;;5.10;96.60;;;;;;4976023;28;20537;-60
2021/03/12 07:55:36;;;;;;;4.70;2.30;;;5.10;96.90;;;;;;4953307;28;20478;-55
2021/03/12 07:58:03;;;;;;;3.83;1.60;;;5.20;96.00;;;;;;4981889;28;20820;-59
2021/03/12 08:00:29;;;;;;;5.00;1.57;;;5.20;96.00;;;;;;4956098;28;20476;-58
2021/03/12 08:03:00;;;;;;;3.27;1.30;;;5.30;96.40;;;;;;4974697;28;20467;-59
2021/03/12 08:05:30;;;;;;;3.27;1.30;;;5.30;94.50;;;;;;4976879;28;20466;-58
2021/03/12 08:07:55;;;;;;;4.17;1.37;;;5.30;92.60;;;;;;5094898;23;20503;-54
2021/03/12 08:10:22;;;;;;;4.43;1.43;;;5.20;93.40;;;;;;4990743;28;20862;-55
2021/03/12 08:12:49;;;;;;;1.93;1.10;;;5.20;94.40;;;;;;4975100;28;20279;-56
2021/03/12 08:15:29;;;;;;;4.63;1.57;;;5.30;95.30;;;;;;4973565;28;20466;-57
2021/03/12 08:17:58;;;;;;;6.30;1.60;;;5.40;94.80;;;;;;4983868;28;20458;-54
2021/03/12 08:20:40;;;;;;;8.23;1.60;;;5.40;94.40;;;;;;5000080;28;20431;-56
2021/03/12 08:23:07;;;;;;;1.80;1.60;;;5.40;94.00;;;;;;4992536;28;20516;-56
2021/03/12 08:25:35;;;;;;;2.80;1.37;;;5.40;94.00;;;;;;4998129;28;20439;-55
2021/03/12 08:28:25;;;;;;;1.50;1.40;;;5.50;95.10;;;;;;4998110;28;21122;-56
2021/03/12 08:30:53;;;;;;;4.40;1.70;;;5.60;95.50;;;;;;4989089;28;20435;-58
2021/03/12 08:33:21;;;;;;;2.70;1.40;;;5.60;95.40;;;;;;4998572;28;20530;-54
2021/03/12 08:35:49;;;;;;;16.30;2.20;;;5.60;94.70;;;;;;5003228;28;20455;-55
2021/03/12 08:38:27;;;;;;;7.30;2.20;;;5.50;95.30;;;;;;5000376;28;20512;-58
2021/03/12 08:40:59;;;;;;;4.77;1.13;;;5.60;95.50;;;;;;4996565;28;21351;-57
2021/03/12 08:43:28;;;;;;;3.50;1.50;;;5.60;95.00;;;;;;4995127;28;20533;-56
2021/03/12 08:46:10;;;;;;;4.20;1.77;;;5.70;95.50;;;;;;5001727;28;20442;-59
2021/03/12 08:48:37;;;;;;;1.80;1.30;;;5.70;95.70;;;;;;5001391;28;20455;-59
2021/03/12 08:51:10;;;;;;;9.33;1.90;;;5.70;95.60;;;;;;5000949;28;20943;-57
2021/03/12 08:53:38;;;;;;;2.60;1.50;;;5.60;95.90;;;;;;4997179;28;20468;-57
2021/03/12 08:56:08;;;;;;;5.10;1.80;;;5.60;96.00;;;;;;5001563;28;20497;-57
2021/03/12 08:58:36;;;;;;;3.17;1.40;;;5.70;96.40;;;;;;5005392;28;20943;-59
2021/03/12 09:01:27;;;;;;;2.40;1.30;;;5.80;96.00;;;;;;4999583;28;20536;-55
2021/03/12 09:03:59;;;;;;;2.53;1.73;;;5.80;96.10;;;;;;4993472;28;20508;-55
2021/03/12 09:06:27;;;;;;;3.17;1.30;;;5.90;95.80;;;;;;4991071;28;20446;-59
2021/03/12 09:08:53;;;;;;;1.77;1.50;;;6.00;95.50;;;;;;4997314;28;20462;-55
2021/03/12 09:11:24;;;;;;;4.80;1.70;;;6.10;94.20;;;;;;5002905;28;20510;-56
2021/03/12 09:13:52;;;;;;;3.20;1.50;;;6.20;94.70;;;;;;5004266;28;20965;-56
2021/03/12 09:16:26;;;;;;;2.87;1.40;;;6.40;94.00;;;;;;4998256;28;20448;-57
2021/03/12 09:18:54;;;;;;;9.87;1.90;;;6.50;92.70;;;;;;4999496;28;20522;-56
2021/03/12 09:21:22;;;;;;;3.80;1.30;;;6.60;91.90;;;;;;5002731;28;20439;-55
2021/03/12 09:23:56;;;;;;;5.60;1.33;;;6.60;90.40;;;;;;4992544;28;20473;-56
2021/03/12 09:26:24;;;;;;;11.53;1.73;;;6.60;86.50;;;;;;5001136;28;20493;-59
2021/03/12 09:28:52;;;;;;;1.30;1.20;;;6.50;86.30;;;;;;4999156;28;20443;-55
2021/03/12 09:31:20;;;;;;;3.17;1.10;;;6.50;85.00;;;;;;5001188;28;20446;-57
2021/03/12 09:33:50;;;;;;;6.13;2.23;;;6.60;83.20;;;;;;5001998;28;20468;-58
2021/03/12 09:36:28;;;;;;;6.80;1.33;;;6.70;81.90;;;;;;5000605;28;21211;-57
2021/03/12 09:38:55;;;;;;;7.33;1.83;;;6.90;79.90;;;;;;5001918;28;20583;-58
2021/03/12 09:41:26;;;;;;;6.27;1.70;;;6.90;77.80;;;;;;4999945;28;20574;-55
2021/03/12 09:43:59;;;;;;;4.17;1.37;;;7.10;81.50;;;;;;4979881;28;20454;-57
2021/03/12 09:46:48;;;;;;;6.80;2.00;;;7.30;80.00;;;;;;4999992;28;21355;-58
2021/03/12 09:49:37;;;;;;;4.00;1.67;;;7.60;74.30;;;;;;4998722;28;20474;-57
2021/03/12 09:52:10;;;;;;;4.53;1.40;;;7.90;72.30;;;;;;5003063;28;20887;-56
2021/03/12 09:54:37;;;;;;;18.13;2.00;;;7.90;64.20;;;;;;5001665;28;22210;-56
2021/03/12 09:57:04;;;;;;;3.40;1.33;;;7.90;61.30;;;;;;4994595;28;20455;-56
2021/03/12 09:59:36;;;;;;;5.80;1.30;;;7.90;63.10;;;;;;5002898;28;20444;-57
2021/03/12 10:02:06;;;;;;;3.67;1.40;;;8.00;62.10;;;;;;4995527;28;20497;-57
2021/03/12 10:04:40;;;;;;;3.77;1.40;;;8.10;61.70;;;;;;4998304;28;21004;-57
2021/03/12 10:07:08;;;;;;;4.67;1.43;;;8.20;59.00;;;;;;4999666;28;21018;-57
2021/03/12 10:09:34;;;;;;;4.70;1.60;;;8.30;55.70;;;;;;4969707;28;20835;-57
2021/03/12 10:12:02;;;;;;;3.30;1.33;;;8.30;55.50;;;;;;5000140;28;21050;-58
2021/03/12 10:14:36;;;;;;;5.43;1.30;;;8.40;58.20;;;;;;5004036;28;20438;-58
2021/03/12 10:17:19;;;;;;;6.17;1.47;;;8.30;53.90;;;;;;5000816;28;20438;-59
2021/03/12 10:19:58;;;;;;;4.33;1.57;;;8.00;53.60;;;;;;4988308;28;20474;-57
2021/03/12 10:22:26;;;;;;;4.57;1.00;;;7.90;54.00;;;;;;4995821;28;21270;-57
2021/03/12 10:24:56;;;;;;;1.60;1.10;;;7.70;53.40;;;;;;4998190;28;20915;-56
2021/03/12 10:27:25;;;;;;;6.23;1.73;;;7.60;53.40;;;;;;4995969;28;20447;-58
2021/03/12 10:29:52;;;;;;;4.03;1.23;;;7.70;54.50;;;;;;4995324;28;20430;-57
2021/03/12 10:32:18;;;;;;;2.37;1.63;;;7.80;55.60;;;;;;4998361;28;20469;-59
2021/03/12 10:34:45;;;;;;;3.57;1.37;;;7.80;52.80;;;;;;4979724;28;20939;-57
2021/03/12 10:37:13;;;;;;;8.03;1.90;;;7.80;53.00;;;;;;4998090;28;20994;-55
2021/03/12 10:39:47;;;;;;;2.30;1.20;;;7.70;54.10;;;;;;4999208;28;20428;-55
2021/03/12 10:42:14;;;;;;;4.90;1.30;;;7.60;53.80;;;;;;4992471;28;20462;-56
2021/03/12 10:44:51;;;;;;;4.47;1.00;;;7.60;52.00;;;;;;4998754;28;20436;-55
2021/03/12 10:47:17;;;;;;;2.90;1.37;;;7.30;51.20;;;;;;5000483;28;20889;-56
2021/03/12 10:49:43;;;;;;;5.07;1.13;;;7.20;51.80;;;;;;4993050;28;20943;-56
2021/03/12 10:52:09;;;;;;;3.13;1.10;;;7.20;51.70;;;;;;5000957;28;20424;-55
2021/03/12 10:54:35;;;;;;;5.80;1.43;;;7.10;52.50;;;;;;4999062;28;20470;-56
2021/03/12 10:57:01;;;;;;;4.83;1.73;;;7.10;53.90;;;;;;4995360;28;21389;-56
2021/03/12 10:59:27;;;;;;;3.27;1.30;;;7.10;53.70;;;;;;4992999;28;20224;-57
2021/03/12 11:01:53;;;;;;;4.17;1.30;;;7.10;54.00;;;;;;4995299;28;20228;-56
2021/03/12 11:04:19;;;;;;;3.87;1.30;;;7.30;54.10;;;;;;4995086;28;20823;-56
2021/03/12 11:06:45;;;;;;;5.93;1.30;;;7.40;53.00;;;;;;4991083;28;20200;-58
2021/03/12 11:09:12;;;;;;;6.03;1.50;;;7.60;51.70;;;;;;4998621;28;20216;-58
2021/03/12 11:11:40;;;;;;;4.07;1.50;;;7.90;52.00;;;;;;4999866;28;20287;-56
2021/03/12 11:14:07;;;;;;;2.20;1.13;;;8.50;53.10;;;;;;5000417;28;20439;-55
2021/03/12 11:16:33;;;;;;;2.83;1.23;;;9.00;50.10;;;;;;4999006;28;20450;-58
2021/03/12 11:18:59;;;;;;;4.43;1.17;;;9.10;48.70;;;;;;4995029;28;21255;-59
2021/03/12 11:21:26;;;;;;;2.73;1.10;;;9.00;48.30;;;;;;4996796;28;20438;-54
2021/03/12 11:23:53;;;;;;;5.43;1.30;;;9.00;49.00;;;;;;4994432;28;20208;-55
2021/03/12 11:26:20;;;;;;;3.50;1.37;;;8.90;48.60;;;;;;4989329;28;20910;-56
2021/03/12 11:28:47;;;;;;;4.63;1.50;;;8.80;49.70;;;;;;5013881;28;20447;-55
2021/03/12 11:31:13;;;;;;;1.57;1.27;;;8.70;48.70;;;;;;5002426;28;20450;-56
2021/03/12 11:33:40;;;;;;;8.13;1.80;;;8.70;48.50;;;;;;5005628;28;20447;-56
2021/03/12 11:36:07;;;;;;;6.30;1.40;;;8.60;48.80;;;;;;5010958;28;20946;-56
2021/03/12 11:38:33;;;;;;;2.10;1.23;;;8.50;47.00;;;;;;4993612;28;20470;-55
2021/03/12 11:41:00;;;;;;;3.20;1.30;;;8.40;47.70;;;;;;5012808;28;20419;-55
2021/03/12 11:43:26;;;;;;;3.80;1.50;;;8.40;48.10;;;;;;5010937;28;20461;-57
2021/03/12 11:45:52;;;;;;;6.13;1.67;;;8.70;49.00;;;;;;5008076;28;20436;-56
2021/03/12 11:48:17;;;;;;;1.50;1.23;;;9.20;47.80;;;;;;5009017;28;20952;-57
2021/03/12 11:50:43;;;;;;;2.43;1.30;;;9.40;46.80;;;;;;5013497;28;20454;-54
2021/03/12 11:53:09;;;;;;;7.40;1.30;;;9.20;42.90;;;;;;5010823;28;20212;-56
2021/03/12 11:55:35;;;;;;;9.30;1.27;;;8.80;43.80;;;;;;5006966;28;20204;-53
2021/03/12 11:58:02;;;;;;;4.67;1.60;;;8.50;44.60;;;;;;5011053;28;20467;-54
2021/03/12 12:00:29;;;;;;;4.97;1.23;;;8.30;45.40;;;;;;5006624;28;20514;-54
2021/03/12 12:02:55;;;;;;;4.97;1.70;;;8.60;45.30;;;;;;5012365;28;20463;-56
2021/03/12 12:05:21;;;;;;;5.80;1.70;;;9.20;45.20;;;;;;5006861;28;20995;-56
2021/03/12 12:07:46;;;;;;;3.03;1.63;;;9.80;44.50;;;;;;5003550;28;20223;-55
2021/03/12 12:10:13;;;;;;;1.67;1.20;;;10.50;42.60;;;;;;5010477;28;20185;-56
2021/03/12 12:12:42;;;;;;;5.50;1.20;;;10.90;39.70;;;;;;5004346;28;20932;-55
2021/03/12 12:15:08;;;;;;;2.80;1.40;;;11.30;39.40;;;;;;5002559;28;20481;-57
2021/03/12 12:17:34;;;;;;;3.40;1.23;;;11.60;39.90;;;;;;5009542;28;20474;-57
2021/03/12 12:20:00;;;;;;;5.70;1.60;;;11.90;39.20;;;;;;5010177;28;20542;-56
2021/03/12 12:22:25;;;;;;;5.27;1.50;;;12.20;38.50;;;;;;5001506;28;20295;-58
2021/03/12 12:24:55;;;;;;;4.33;1.70;;;12.40;38.10;;;;;;5003298;28;20318;-58
2021/03/12 12:27:22;;;;;;;3.67;1.50;;;12.60;37.00;;;;;;5004926;28;20219;-57
2021/03/12 12:29:47;;;;;;;9.53;1.80;;;12.40;35.50;;;;;;5007367;28;20436;-56
2021/03/12 12:32:13;;;;;;;4.43;1.70;;;12.20;36.20;;;;;;5011161;28;20507;-58
2021/03/12 12:34:39;;;;;;;3.63;1.50;;;12.30;38.00;;;;;;5009356;28;20234;-58
2021/03/12 12:37:05;;;;;;;3.93;1.30;;;12.60;39.30;;;;;;5010487;28;20207;-58
2021/03/12 12:39:30;;;;;;;5.13;2.10;;;12.90;37.10;;;;;;5010665;28;20969;-59
2021/03/12 12:41:56;;;;;;;2.73;1.17;;;12.70;36.60;;;;;;5005060;28;20181;-58
2021/03/12 12:44:22;;;;;;;3.70;1.53;;;12.70;37.30;;;;;;5001931;28;20208;-57
2021/03/12 12:46:48;;;;;;;2.40;1.20;;;12.50;37.80;;;;;;5002007;28;20188;-57
2021/03/12 12:49:14;;;;;;;4.40;1.70;;;12.70;37.30;;;;;;5002064;28;20520;-57
2021/03/12 12:51:39;;;;;;;12.60;1.80;;;12.90;37.20;;;;;;5002384;28;20188;-57
2021/03/12 12:54:06;;;;;;;4.63;1.10;;;13.10;36.70;;;;;;5007772;28;20268;-57
2021/03/12 12:56:32;;;;;;;1.47;1.00;;;12.90;38.00;;;;;;5008504;28;20203;-56
2021/03/12 12:58:59;;;;;;;4.83;1.30;;;12.90;36.30;;;;;;5001803;28;20452;-57
2021/03/12 13:01:25;;;;;;;3.20;1.27;;;12.80;36.20;;;;;;4976575;28;20440;-57